TimeEDT,TemperatureF,Dew PointF,Humidity,Sea Level PressureIn,VisibilityMPH,Wind Direction,Wind SpeedMPH,Gust SpeedMPH,PrecipitationIn,Events,Conditions,WindDirDegrees,DateUTC
12:54 AM,42.1,33.1,70,30.28,10.0,Calm,Calm,-,N/A,,Clear,0,2013-05-27 04:54:00
1:54 AM,39.0,32.0,76,30.29,10.0,Calm,Calm,-,N/A,,Clear,0,2013-05-27 05:54:00
2:54 AM,37.9,30.9,76,30.28,10.0,North,4.6,-,N/A,,Clear,360,2013-05-27 06:54:00
3:54 AM,37.0,33.1,86,30.29,10.0,Calm,Calm,-,N/A,,Clear,0,2013-05-27 07:54:00
4:54 AM,35.1,33.1,92,30.29,10.0,Calm,Calm,-,N/A,,Clear,0,2013-05-27 08:54:00
5:54 AM,33.1,30.9,92,30.30,10.0,Calm,Calm,-,N/A,,Clear,0,2013-05-27 09:54:00
6:54 AM,35.1,34.0,96,30.31,10.0,Calm,Calm,-,N/A,,Clear,0,2013-05-27 10:54:00
7:54 AM,41.0,37.0,86,30.30,10.0,Calm,Calm,-,N/A,,Clear,0,2013-05-27 11:54:00
8:54 AM,48.0,36.0,63,30.30,10.0,Calm,Calm,-,N/A,,Clear,0,2013-05-27 12:54:00
9:54 AM,54.0,35.1,49,30.30,10.0,Calm,Calm,-,N/A,,Clear,0,2013-05-27 13:54:00
10:54 AM,59.0,34.0,39,30.30,10.0,Variable,4.6,-,N/A,,Clear,0,2013-05-27 14:54:00
11:54 AM,62.1,35.1,37,30.27,10.0,Calm,Calm,-,N/A,,Clear,0,2013-05-27 15:54:00
12:54 PM,64.0,32.0,30,30.26,10.0,Variable,4.6,-,N/A,,Clear,0,2013-05-27 16:54:00
1:54 PM,66.0,30.0,26,30.22,10.0,Calm,Calm,-,N/A,,Clear,0,2013-05-27 17:54:00
2:54 PM,68.0,28.9,23,30.21,10.0,SW,9.2,-,N/A,,Clear,230,2013-05-27 18:54:00
3:54 PM,66.9,30.0,25,30.20,10.0,WSW,9.2,-,N/A,,Clear,240,2013-05-27 19:54:00
4:54 PM,64.9,35.1,33,30.20,10.0,SSW,10.4,-,N/A,,Clear,210,2013-05-27 20:54:00
5:54 PM,64.0,34.0,33,30.20,10.0,SSW,8.1,-,N/A,,Clear,210,2013-05-27 21:54:00
6:54 PM,64.0,30.0,28,30.19,10.0,SW,4.6,-,N/A,,Clear,230,2013-05-27 22:54:00
7:54 PM,62.1,32.0,32,30.19,10.0,SW,4.6,-,N/A,,Clear,230,2013-05-27 23:54:00
8:54 PM,60.1,34.0,38,30.17,10.0,Calm,Calm,-,N/A,,Clear,0,2013-05-28 00:54:00
9:54 PM,57.9,37.0,46,30.18,10.0,Calm,Calm,-,N/A,,Overcast,0,2013-05-28 01:54:00
10:54 PM,57.0,39.9,53,30.18,10.0,SW,3.5,-,N/A,,Overcast,230,2013-05-28 02:54:00
11:54 PM,54.0,39.9,59,30.18,10.0,NNW,3.5,-,N/A,,Overcast,330,2013-05-28 03:54:00